sensor_id;sensor_type;location;lat;lon;timestamp;temperature;humidity
74178;DHT22;62540;48.456;-4.456;2024-03-22T00:02:15;13.37;72.22
74178;DHT22;62540;48.456;-4.456;2024-03-22T00:04:41;13.26;72.45
74178;DHT22;62540;48.456;-4.456;2024-03-22T00:07:06;13.24;72.70
74178;DHT22;62540;48.456;-4.456;2024-03-22T00:09:32;13.26;72.78
74178;DHT22;62540;48.456;-4.456;2024-03-22T00:11:57;13.26;72.79
74178;DHT22;62540;48.456;-4.456;2024-03-22T00:14:23;13.26;72.76
74178;DHT22;62540;48.456;-4.456;2024-03-22T00:16:48;13.31;72.62
74178;DHT22;62540;48.456;-4.456;2024-03-22T00:19:14;13.31;72.57
74178;DHT22;62540;48.456;-4.456;2024-03-22T00:21:39;13.31;72.54
74178;DHT22;62540;48.456;-4.456;2024-03-22T00:24:05;13.34;72.54
74178;DHT22;62540;48.456;-4.456;2024-03-22T00:26:30;13.33;72.48
74178;DHT22;62540;48.456;-4.456;2024-03-22T00:28:56;13.30;72.43
74178;DHT22;62540;48.456;-4.456;2024-03-22T00:31:23;13.31;72.56
74178;DHT22;62540;48.456;-4.456;2024-03-22T00:33:49;13.33;72.65
74178;DHT22;62540;48.456;-4.456;2024-03-22T00:36:14;13.39;72.55
74178;DHT22;62540;48.456;-4.456;2024-03-22T00:38:40;13.40;72.52
74178;DHT22;62540;48.456;-4.456;2024-03-22T00:41:05;13.40;72.52
74178;DHT22;62540;48.456;-4.456;2024-03-22T00:43:31;13.34;72.63
74178;DHT22;62540;48.456;-4.456;2024-03-22T00:45:57;13.39;72.71
74178;DHT22;62540;48.456;-4.456;2024-03-22T00:48:23;13.37;72.68
74178;DHT22;62540;48.456;-4.456;2024-03-22T00:50:49;13.40;72.78
74178;DHT22;62540;48.456;-4.456;2024-03-22T00:53:14;13.39;72.77
74178;DHT22;62540;48.456;-4.456;2024-03-22T00:55:40;13.39;72.80
74178;DHT22;62540;48.456;-4.456;2024-03-22T00:58:05;13.39;72.80
74178;DHT22;62540;48.456;-4.456;2024-03-22T01:00:31;13.43;72.82
74178;DHT22;62540;48.456;-4.456;2024-03-22T01:02:56;13.37;72.79
74178;DHT22;62540;48.456;-4.456;2024-03-22T01:05:21;13.33;72.93
74178;DHT22;62540;48.456;-4.456;2024-03-22T01:07:47;13.24;73.11
74178;DHT22;62540;48.456;-4.456;2024-03-22T01:10:12;13.23;73.22
74178;DHT22;62540;48.456;-4.456;2024-03-22T01:12:39;13.30;73.20
74178;DHT22;62540;48.456;-4.456;2024-03-22T01:15:06;13.30;73.08
74178;DHT22;62540;48.456;-4.456;2024-03-22T01:17:33;13.24;73.21
74178;DHT22;62540;48.456;-4.456;2024-03-22T01:19:58;13.10;73.49
74178;DHT22;62540;48.456;-4.456;2024-03-22T01:22:24;13.04;73.70
74178;DHT22;62540;48.456;-4.456;2024-03-22T01:24:49;13.03;73.78
74178;DHT22;62540;48.456;-4.456;2024-03-22T01:27:14;13.00;73.82
74178;DHT22;62540;48.456;-4.456;2024-03-22T01:29:40;13.00;73.95
74178;DHT22;62540;48.456;-4.456;2024-03-22T01:32:06;13.04;73.86
74178;DHT22;62540;48.456;-4.456;2024-03-22T01:34:31;13.07;73.67
74178;DHT22;62540;48.456;-4.456;2024-03-22T01:36:56;13.03;73.65
74178;DHT22;62540;48.456;-4.456;2024-03-22T01:39:22;13.02;73.65
74178;DHT22;62540;48.456;-4.456;2024-03-22T01:41:51;13.03;73.59
74178;DHT22;62540;48.456;-4.456;2024-03-22T01:44:17;13.07;73.50
74178;DHT22;62540;48.456;-4.456;2024-03-22T01:46:43;13.10;73.44
74178;DHT22;62540;48.456;-4.456;2024-03-22T01:49:10;13.19;73.39
74178;DHT22;62540;48.456;-4.456;2024-03-22T01:51:39;13.27;73.26
74178;DHT22;62540;48.456;-4.456;2024-03-22T01:54:05;13.31;73.00
74178;DHT22;62540;48.456;-4.456;2024-03-22T01:56:33;13.30;72.93
74178;DHT22;62540;48.456;-4.456;2024-03-22T01:58:58;13.30;72.95
74178;DHT22;62540;48.456;-4.456;2024-03-22T02:01:24;13.33;72.93
74178;DHT22;62540;48.456;-4.456;2024-03-22T02:03:49;13.33;72.90
74178;DHT22;62540;48.456;-4.456;2024-03-22T02:06:14;13.31;72.93
74178;DHT22;62540;48.456;-4.456;2024-03-22T02:08:40;13.28;72.89
74178;DHT22;62540;48.456;-4.456;2024-03-22T02:11:07;13.21;73.03
74178;DHT22;62540;48.456;-4.456;2024-03-22T02:13:33;13.21;73.21
74178;DHT22;62540;48.456;-4.456;2024-03-22T02:15:58;13.21;73.17
74178;DHT22;62540;48.456;-4.456;2024-03-22T02:18:23;13.21;73.20
74178;DHT22;62540;48.456;-4.456;2024-03-22T02:20:49;13.23;73.26
74178;DHT22;62540;48.456;-4.456;2024-03-22T02:23:14;13.17;73.40
74178;DHT22;62540;48.456;-4.456;2024-03-22T02:25:40;13.19;73.57
74178;DHT22;62540;48.456;-4.456;2024-03-22T02:28:05;13.17;73.58
74178;DHT22;62540;48.456;-4.456;2024-03-22T02:30:30;13.20;73.57
74178;DHT22;62540;48.456;-4.456;2024-03-22T02:32:56;13.26;73.48
74178;DHT22;62540;48.456;-4.456;2024-03-22T02:35:21;13.26;73.40
74178;DHT22;62540;48.456;-4.456;2024-03-22T02:37:46;13.26;73.42
74178;DHT22;62540;48.456;-4.456;2024-03-22T02:40:12;13.24;73.40
74178;DHT22;62540;48.456;-4.456;2024-03-22T02:42:37;13.23;73.42
74178;DHT22;62540;48.456;-4.456;2024-03-22T02:45:03;13.19;73.30
74178;DHT22;62540;48.456;-4.456;2024-03-22T02:47:29;13.16;73.21
74178;DHT22;62540;48.456;-4.456;2024-03-22T02:49:54;13.11;73.26
74178;DHT22;62540;48.456;-4.456;2024-03-22T02:52:20;13.09;73.23
74178;DHT22;62540;48.456;-4.456;2024-03-22T02:54:45;13.06;73.17
74178;DHT22;62540;48.456;-4.456;2024-03-22T02:57:10;13.09;73.26
74178;DHT22;62540;48.456;-4.456;2024-03-22T02:59:36;13.13;73.00
74178;DHT22;62540;48.456;-4.456;2024-03-22T03:02:01;13.13;72.95
74178;DHT22;62540;48.456;-4.456;2024-03-22T03:04:27;13.13;73.02
74178;DHT22;62540;48.456;-4.456;2024-03-22T03:06:52;13.04;73.08
74178;DHT22;62540;48.456;-4.456;2024-03-22T03:09:17;13.02;73.44
74178;DHT22;62540;48.456;-4.456;2024-03-22T03:11:43;13.02;73.54
74178;DHT22;62540;48.456;-4.456;2024-03-22T03:14:08;12.99;73.59
74178;DHT22;62540;48.456;-4.456;2024-03-22T03:16:33;13.00;73.64
74178;DHT22;62540;48.456;-4.456;2024-03-22T03:18:59;12.97;73.74
74178;DHT22;62540;48.456;-4.456;2024-03-22T03:21:24;13.02;73.75
74178;DHT22;62540;48.456;-4.456;2024-03-22T03:23:50;13.02;73.64
74178;DHT22;62540;48.456;-4.456;2024-03-22T03:26:15;12.99;73.66
74178;DHT22;62540;48.456;-4.456;2024-03-22T03:28:41;13.02;73.60
74178;DHT22;62540;48.456;-4.456;2024-03-22T03:31:06;12.93;73.39
74178;DHT22;62540;48.456;-4.456;2024-03-22T03:33:31;12.88;73.38
74178;DHT22;62540;48.456;-4.456;2024-03-22T03:35:57;12.93;73.39
74178;DHT22;62540;48.456;-4.456;2024-03-22T03:38:22;12.93;73.29
74178;DHT22;62540;48.456;-4.456;2024-03-22T03:40:48;12.96;73.22
74178;DHT22;62540;48.456;-4.456;2024-03-22T03:43:13;12.95;73.13
74178;DHT22;62540;48.456;-4.456;2024-03-22T03:45:39;12.95;73.23
74178;DHT22;62540;48.456;-4.456;2024-03-22T03:48:04;12.90;73.08
74178;DHT22;62540;48.456;-4.456;2024-03-22T03:50:30;12.89;73.28
74178;DHT22;62540;48.456;-4.456;2024-03-22T03:52:55;12.88;73.39
74178;DHT22;62540;48.456;-4.456;2024-03-22T03:55:22;12.88;73.36
74178;DHT22;62540;48.456;-4.456;2024-03-22T03:57:49;12.88;73.37
74178;DHT22;62540;48.456;-4.456;2024-03-22T04:00:14;12.86;73.23
74178;DHT22;62540;48.456;-4.456;2024-03-22T04:02:40;12.88;73.32
74178;DHT22;62540;48.456;-4.456;2024-03-22T04:05:05;12.86;73.25
74178;DHT22;62540;48.456;-4.456;2024-03-22T04:07:31;12.88;73.28
74178;DHT22;62540;48.456;-4.456;2024-03-22T04:09:56;12.89;73.22
74178;DHT22;62540;48.456;-4.456;2024-03-22T04:12:22;12.86;72.98
74178;DHT22;62540;48.456;-4.456;2024-03-22T04:14:47;12.89;72.90
74178;DHT22;62540;48.456;-4.456;2024-03-22T04:17:12;12.92;72.87
74178;DHT22;62540;48.456;-4.456;2024-03-22T04:19:38;12.96;72.79
74178;DHT22;62540;48.456;-4.456;2024-03-22T04:22:03;12.97;72.76
74178;DHT22;62540;48.456;-4.456;2024-03-22T04:24:29;12.97;72.77
74178;DHT22;62540;48.456;-4.456;2024-03-22T04:26:54;12.97;72.81
74178;DHT22;62540;48.456;-4.456;2024-03-22T04:29:20;13.04;72.90
74178;DHT22;62540;48.456;-4.456;2024-03-22T04:31:45;13.04;72.66
74178;DHT22;62540;48.456;-4.456;2024-03-22T04:34:10;13.02;72.71
74178;DHT22;62540;48.456;-4.456;2024-03-22T04:36:36;13.00;72.71
74178;DHT22;62540;48.456;-4.456;2024-03-22T04:39:01;13.00;72.74
74178;DHT22;62540;48.456;-4.456;2024-03-22T04:41:28;13.03;72.81
74178;DHT22;62540;48.456;-4.456;2024-03-22T04:43:54;13.00;72.80
74178;DHT22;62540;48.456;-4.456;2024-03-22T04:46:19;12.97;72.80
74178;DHT22;62540;48.456;-4.456;2024-03-22T04:48:45;12.99;72.81
74178;DHT22;62540;48.456;-4.456;2024-03-22T04:51:10;12.95;72.90
74178;DHT22;62540;48.456;-4.456;2024-03-22T04:53:35;12.97;72.87
74178;DHT22;62540;48.456;-4.456;2024-03-22T04:56:01;12.97;72.81
74178;DHT22;62540;48.456;-4.456;2024-03-22T04:58:28;13.03;72.78
74178;DHT22;62540;48.456;-4.456;2024-03-22T05:00:57;13.06;72.72
74178;DHT22;62540;48.456;-4.456;2024-03-22T05:03:22;13.09;72.64
74178;DHT22;62540;48.456;-4.456;2024-03-22T05:05:49;13.04;72.43
74178;DHT22;62540;48.456;-4.456;2024-03-22T05:08:15;13.02;72.63
74178;DHT22;62540;48.456;-4.456;2024-03-22T05:10:40;13.04;72.49
74178;DHT22;62540;48.456;-4.456;2024-03-22T05:13:07;12.99;72.34
74178;DHT22;62540;48.456;-4.456;2024-03-22T05:15:32;12.96;72.49
74178;DHT22;62540;48.456;-4.456;2024-03-22T05:17:58;12.89;72.64
74178;DHT22;62540;48.456;-4.456;2024-03-22T05:20:24;12.90;72.69
74178;DHT22;62540;48.456;-4.456;2024-03-22T05:22:50;12.90;72.70
74178;DHT22;62540;48.456;-4.456;2024-03-22T05:25:15;12.92;72.57
74178;DHT22;62540;48.456;-4.456;2024-03-22T05:27:41;12.93;72.40
74178;DHT22;62540;48.456;-4.456;2024-03-22T05:30:08;12.86;72.00
74178;DHT22;62540;48.456;-4.456;2024-03-22T05:32:33;12.78;72.15
74178;DHT22;62540;48.456;-4.456;2024-03-22T05:34:59;12.78;72.26
74178;DHT22;62540;48.456;-4.456;2024-03-22T05:37:24;12.78;72.11
74178;DHT22;62540;48.456;-4.456;2024-03-22T05:39:50;12.79;71.89
74178;DHT22;62540;48.456;-4.456;2024-03-22T05:42:15;12.81;71.67
74178;DHT22;62540;48.456;-4.456;2024-03-22T05:44:40;12.79;71.43
74178;DHT22;62540;48.456;-4.456;2024-03-22T05:47:06;12.79;71.30
74178;DHT22;62540;48.456;-4.456;2024-03-22T05:49:31;12.75;71.20
74178;DHT22;62540;48.456;-4.456;2024-03-22T05:51:57;12.76;71.02
74178;DHT22;62540;48.456;-4.456;2024-03-22T05:54:22;12.69;70.93
74178;DHT22;62540;48.456;-4.456;2024-03-22T05:56:48;12.69;70.87
74178;DHT22;62540;48.456;-4.456;2024-03-22T05:59:13;12.68;70.78
74178;DHT22;62540;48.456;-4.456;2024-03-22T06:01:39;12.62;70.67
74178;DHT22;62540;48.456;-4.456;2024-03-22T06:04:05;12.58;70.64
74178;DHT22;62540;48.456;-4.456;2024-03-22T06:06:34;12.53;70.71
74178;DHT22;62540;48.456;-4.456;2024-03-22T06:09:00;12.48;70.91
74178;DHT22;62540;48.456;-4.456;2024-03-22T06:11:29;12.42;71.24
74178;DHT22;62540;48.456;-4.456;2024-03-22T06:13:54;12.40;71.49
74178;DHT22;62540;48.456;-4.456;2024-03-22T06:16:19;12.37;71.80
74178;DHT22;62540;48.456;-4.456;2024-03-22T06:18:45;12.38;71.86
74178;DHT22;62540;48.456;-4.456;2024-03-22T06:21:10;12.34;71.77
74178;DHT22;62540;48.456;-4.456;2024-03-22T06:23:36;12.25;71.77
74178;DHT22;62540;48.456;-4.456;2024-03-22T06:26:01;12.21;72.09
74178;DHT22;62540;48.456;-4.456;2024-03-22T06:28:28;12.24;72.11
74178;DHT22;62540;48.456;-4.456;2024-03-22T06:30:53;12.27;71.98
74178;DHT22;62540;48.456;-4.456;2024-03-22T06:33:19;12.30;71.90
74178;DHT22;62540;48.456;-4.456;2024-03-22T06:35:45;12.34;71.85
74178;DHT22;62540;48.456;-4.456;2024-03-22T06:38:10;12.35;71.68
74178;DHT22;62540;48.456;-4.456;2024-03-22T06:40:36;12.35;71.57
74178;DHT22;62540;48.456;-4.456;2024-03-22T06:43:01;12.37;71.52
74178;DHT22;62540;48.456;-4.456;2024-03-22T06:45:27;12.38;71.42
74178;DHT22;62540;48.456;-4.456;2024-03-22T06:47:52;12.38;71.36
74178;DHT22;62540;48.456;-4.456;2024-03-22T06:50:18;12.41;71.30
74178;DHT22;62540;48.456;-4.456;2024-03-22T06:52:44;12.45;71.23
74178;DHT22;62540;48.456;-4.456;2024-03-22T06:55:09;12.46;71.21
74178;DHT22;62540;48.456;-4.456;2024-03-22T06:57:37;12.52;71.11
74178;DHT22;62540;48.456;-4.456;2024-03-22T07:00:02;12.55;70.95
74178;DHT22;62540;48.456;-4.456;2024-03-22T07:02:28;12.56;70.94
74178;DHT22;62540;48.456;-4.456;2024-03-22T07:04:54;12.62;70.98
74178;DHT22;62540;48.456;-4.456;2024-03-22T07:07:19;12.63;71.00
74178;DHT22;62540;48.456;-4.456;2024-03-22T07:09:44;12.69;71.19
74178;DHT22;62540;48.456;-4.456;2024-03-22T07:12:11;12.76;71.21
74178;DHT22;62540;48.456;-4.456;2024-03-22T07:14:37;12.86;71.31
74178;DHT22;62540;48.456;-4.456;2024-03-22T07:17:02;12.97;71.30
74178;DHT22;62540;48.456;-4.456;2024-03-22T07:19:27;13.14;71.19
74178;DHT22;62540;48.456;-4.456;2024-03-22T07:21:53;13.31;71.10
74178;DHT22;62540;48.456;-4.456;2024-03-22T07:24:19;13.55;70.97
74178;DHT22;62540;48.456;-4.456;2024-03-22T07:26:44;13.78;70.62
74178;DHT22;62540;48.456;-4.456;2024-03-22T07:29:10;14.04;70.28
74178;DHT22;62540;48.456;-4.456;2024-03-22T07:31:35;14.23;69.92
74178;DHT22;62540;48.456;-4.456;2024-03-22T07:34:00;14.50;69.89
74178;DHT22;62540;48.456;-4.456;2024-03-22T07:36:27;14.77;69.55
74178;DHT22;62540;48.456;-4.456;2024-03-22T07:38:52;15.08;69.24
74178;DHT22;62540;48.456;-4.456;2024-03-22T07:41:18;15.31;68.74
74178;DHT22;62540;48.456;-4.456;2024-03-22T07:43:43;15.56;68.33
74178;DHT22;62540;48.456;-4.456;2024-03-22T07:46:09;15.82;68.09
74178;DHT22;62540;48.456;-4.456;2024-03-22T07:48:34;16.08;67.15
74178;DHT22;62540;48.456;-4.456;2024-03-22T07:51:01;16.32;66.78
74178;DHT22;62540;48.456;-4.456;2024-03-22T07:53:26;16.56;64.87
74178;DHT22;62540;48.456;-4.456;2024-03-22T07:55:52;16.75;65.10
74178;DHT22;62540;48.456;-4.456;2024-03-22T07:58:17;16.91;65.79
74178;DHT22;62540;48.456;-4.456;2024-03-22T08:00:43;17.11;65.45
74178;DHT22;62540;48.456;-4.456;2024-03-22T08:03:14;17.41;65.02
74178;DHT22;62540;48.456;-4.456;2024-03-22T08:05:39;17.61;64.68
74178;DHT22;62540;48.456;-4.456;2024-03-22T08:08:05;17.54;63.57
74178;DHT22;62540;48.456;-4.456;2024-03-22T08:10:30;17.31;65.12
74178;DHT22;62540;48.456;-4.456;2024-03-22T08:12:56;17.20;63.41
74178;DHT22;62540;48.456;-4.456;2024-03-22T08:15:21;16.91;64.68
74178;DHT22;62540;48.456;-4.456;2024-03-22T08:17:47;16.79;64.87
74178;DHT22;62540;48.456;-4.456;2024-03-22T08:20:12;16.70;65.88
74178;DHT22;62540;48.456;-4.456;2024-03-22T08:22:37;16.66;65.91
74178;DHT22;62540;48.456;-4.456;2024-03-22T08:25:03;16.59;64.80
74178;DHT22;62540;48.456;-4.456;2024-03-22T08:27:29;16.47;65.81
74178;DHT22;62540;48.456;-4.456;2024-03-22T08:29:55;16.48;65.46
74178;DHT22;62540;48.456;-4.456;2024-03-22T08:32:20;16.44;66.21
74178;DHT22;62540;48.456;-4.456;2024-03-22T08:34:46;16.42;65.70
74178;DHT22;62540;48.456;-4.456;2024-03-22T08:37:11;16.32;65.86
74178;DHT22;62540;48.456;-4.456;2024-03-22T08:39:36;16.35;66.81
74178;DHT22;62540;48.456;-4.456;2024-03-22T08:42:02;16.38;66.46
74178;DHT22;62540;48.456;-4.456;2024-03-22T08:44:30;16.44;66.84
74178;DHT22;62540;48.456;-4.456;2024-03-22T08:46:55;16.42;66.55
74178;DHT22;62540;48.456;-4.456;2024-03-22T08:49:21;16.36;66.62
74178;DHT22;62540;48.456;-4.456;2024-03-22T08:51:46;16.36;66.55
74178;DHT22;62540;48.456;-4.456;2024-03-22T08:54:13;16.22;66.01
74178;DHT22;62540;48.456;-4.456;2024-03-22T08:56:38;16.08;66.21
74178;DHT22;62540;48.456;-4.456;2024-03-22T08:59:04;15.97;66.72
74178;DHT22;62540;48.456;-4.456;2024-03-22T09:01:29;15.82;67.00
74178;DHT22;62540;48.456;-4.456;2024-03-22T09:03:54;15.74;67.48
74178;DHT22;62540;48.456;-4.456;2024-03-22T09:06:20;15.77;67.89
74178;DHT22;62540;48.456;-4.456;2024-03-22T09:08:46;15.83;67.77
74178;DHT22;62540;48.456;-4.456;2024-03-22T09:11:12;15.89;67.88
74178;DHT22;62540;48.456;-4.456;2024-03-22T09:13:38;15.94;67.94
74178;DHT22;62540;48.456;-4.456;2024-03-22T09:16:03;15.93;67.73
74178;DHT22;62540;48.456;-4.456;2024-03-22T09:18:29;15.91;67.82
74178;DHT22;62540;48.456;-4.456;2024-03-22T09:20:54;15.80;67.89
74178;DHT22;62540;48.456;-4.456;2024-03-22T09:23:20;15.74;68.08
74178;DHT22;62540;48.456;-4.456;2024-03-22T09:25:46;15.73;68.43
74178;DHT22;62540;48.456;-4.456;2024-03-22T09:28:12;15.71;68.46
74178;DHT22;62540;48.456;-4.456;2024-03-22T09:30:39;15.67;68.44
74178;DHT22;62540;48.456;-4.456;2024-03-22T09:33:05;15.66;68.70
74178;DHT22;62540;48.456;-4.456;2024-03-22T09:35:30;15.60;68.70
74178;DHT22;62540;48.456;-4.456;2024-03-22T09:37:57;15.57;69.03
74178;DHT22;62540;48.456;-4.456;2024-03-22T09:40:22;15.60;69.23
74178;DHT22;62540;48.456;-4.456;2024-03-22T09:42:49;15.64;69.27
74178;DHT22;62540;48.456;-4.456;2024-03-22T09:45:17;15.59;69.33
74178;DHT22;62540;48.456;-4.456;2024-03-22T09:47:44;15.52;69.55
74178;DHT22;62540;48.456;-4.456;2024-03-22T09:50:10;15.49;69.72
74178;DHT22;62540;48.456;-4.456;2024-03-22T09:52:38;15.46;69.77
74178;DHT22;62540;48.456;-4.456;2024-03-22T09:55:05;15.40;70.03
74178;DHT22;62540;48.456;-4.456;2024-03-22T09:57:30;15.39;70.12
74178;DHT22;62540;48.456;-4.456;2024-03-22T09:59:57;15.42;70.23
74178;DHT22;62540;48.456;-4.456;2024-03-22T10:02:23;15.42;70.62
74178;DHT22;62540;48.456;-4.456;2024-03-22T10:04:50;15.45;70.58
74178;DHT22;62540;48.456;-4.456;2024-03-22T10:07:17;15.43;70.84
74178;DHT22;62540;48.456;-4.456;2024-03-22T10:09:42;15.47;70.85
74178;DHT22;62540;48.456;-4.456;2024-03-22T10:12:09;15.50;70.90
74178;DHT22;62540;48.456;-4.456;2024-03-22T10:14:34;15.56;70.86
74178;DHT22;62540;48.456;-4.456;2024-03-22T10:17:02;15.56;70.92
74178;DHT22;62540;48.456;-4.456;2024-03-22T10:19:27;15.56;71.19
74178;DHT22;62540;48.456;-4.456;2024-03-22T10:22:04;15.52;71.22
74178;DHT22;62540;48.456;-4.456;2024-03-22T10:24:30;15.50;71.61
74178;DHT22;62540;48.456;-4.456;2024-03-22T10:26:57;15.54;71.49
74178;DHT22;62540;48.456;-4.456;2024-03-22T10:29:22;15.53;71.60
74178;DHT22;62540;48.456;-4.456;2024-03-22T10:31:51;15.53;71.61
74178;DHT22;62540;48.456;-4.456;2024-03-22T10:34:17;15.59;71.63
74178;DHT22;62540;48.456;-4.456;2024-03-22T10:36:44;15.54;71.77
74178;DHT22;62540;48.456;-4.456;2024-03-22T10:39:10;15.53;71.82
74178;DHT22;62540;48.456;-4.456;2024-03-22T10:41:38;15.53;72.00
74178;DHT22;62540;48.456;-4.456;2024-03-22T10:44:03;15.53;72.02
74178;DHT22;62540;48.456;-4.456;2024-03-22T10:46:30;15.49;72.32
74178;DHT22;62540;48.456;-4.456;2024-03-22T10:48:59;15.50;72.39
74178;DHT22;62540;48.456;-4.456;2024-03-22T10:51:26;15.53;72.42
74178;DHT22;62540;48.456;-4.456;2024-03-22T10:53:54;15.62;72.30
74178;DHT22;62540;48.456;-4.456;2024-03-22T10:56:22;15.69;72.22
74178;DHT22;62540;48.456;-4.456;2024-03-22T10:58:50;15.73;72.25
74178;DHT22;62540;48.456;-4.456;2024-03-22T11:01:24;15.79;72.27
74178;DHT22;62540;48.456;-4.456;2024-03-22T11:03:49;15.82;72.66
74178;DHT22;62540;48.456;-4.456;2024-03-22T11:06:19;15.80;72.43
74178;DHT22;62540;48.456;-4.456;2024-03-22T11:08:49;15.76;72.59
74178;DHT22;62540;48.456;-4.456;2024-03-22T11:11:18;15.79;72.65
74178;DHT22;62540;48.456;-4.456;2024-03-22T11:13:47;15.79;72.79
74178;DHT22;62540;48.456;-4.456;2024-03-22T11:16:13;15.73;73.16
74178;DHT22;62540;48.456;-4.456;2024-03-22T11:18:39;15.71;73.21
74178;DHT22;62540;48.456;-4.456;2024-03-22T11:21:04;15.74;73.23
74178;DHT22;62540;48.456;-4.456;2024-03-22T11:23:32;15.76;73.24
74178;DHT22;62540;48.456;-4.456;2024-03-22T11:25:58;15.79;73.08
74178;DHT22;62540;48.456;-4.456;2024-03-22T11:28:24;15.80;73.44
74178;DHT22;62540;48.456;-4.456;2024-03-22T11:30:49;15.77;73.65
74178;DHT22;62540;48.456;-4.456;2024-03-22T11:33:15;15.80;73.39
74178;DHT22;62540;48.456;-4.456;2024-03-22T11:35:40;15.76;73.84
74178;DHT22;62540;48.456;-4.456;2024-03-22T11:38:06;15.79;73.92
74178;DHT22;62540;48.456;-4.456;2024-03-22T11:40:32;15.77;73.83
74178;DHT22;62540;48.456;-4.456;2024-03-22T11:43:00;15.84;73.93
74178;DHT22;62540;48.456;-4.456;2024-03-22T11:45:26;15.90;73.86
74178;DHT22;62540;48.456;-4.456;2024-03-22T11:47:52;15.87;74.02
74178;DHT22;62540;48.456;-4.456;2024-03-22T11:50:19;15.82;74.11
74178;DHT22;62540;48.456;-4.456;2024-03-22T11:52:46;15.83;74.14
74178;DHT22;62540;48.456;-4.456;2024-03-22T11:55:15;15.77;74.02
74178;DHT22;62540;48.456;-4.456;2024-03-22T11:57:41;15.77;74.10
74178;DHT22;62540;48.456;-4.456;2024-03-22T12:00:07;15.77;74.21
74178;DHT22;62540;48.456;-4.456;2024-03-22T12:02:38;15.70;74.34
74178;DHT22;62540;48.456;-4.456;2024-03-22T12:05:04;15.64;74.74
74178;DHT22;62540;48.456;-4.456;2024-03-22T12:07:30;15.59;74.95
74178;DHT22;62540;48.456;-4.456;2024-03-22T12:09:56;15.52;75.06
74178;DHT22;62540;48.456;-4.456;2024-03-22T12:12:22;15.47;74.92
74178;DHT22;62540;48.456;-4.456;2024-03-22T12:14:50;15.40;75.37
74178;DHT22;62540;48.456;-4.456;2024-03-22T12:17:16;15.26;75.18
74178;DHT22;62540;48.456;-4.456;2024-03-22T12:19:42;15.21;75.09
74178;DHT22;62540;48.456;-4.456;2024-03-22T12:22:07;15.15;75.03
74178;DHT22;62540;48.456;-4.456;2024-03-22T12:24:33;15.05;74.73
74178;DHT22;62540;48.456;-4.456;2024-03-22T12:26:58;14.85;75.42
74178;DHT22;62540;48.456;-4.456;2024-03-22T12:29:24;14.77;75.90
74178;DHT22;62540;48.456;-4.456;2024-03-22T12:31:50;14.74;75.68
74178;DHT22;62540;48.456;-4.456;2024-03-22T12:34:15;14.81;75.37
74178;DHT22;62540;48.456;-4.456;2024-03-22T12:36:42;14.80;75.20
74178;DHT22;62540;48.456;-4.456;2024-03-22T12:39:07;14.80;74.75
74178;DHT22;62540;48.456;-4.456;2024-03-22T12:41:33;14.83;75.03
74178;DHT22;62540;48.456;-4.456;2024-03-22T12:43:59;14.81;74.38
74178;DHT22;62540;48.456;-4.456;2024-03-22T12:46:25;14.70;74.66
74178;DHT22;62540;48.456;-4.456;2024-03-22T12:48:50;14.60;74.60
74178;DHT22;62540;48.456;-4.456;2024-03-22T12:51:15;14.54;75.01
74178;DHT22;62540;48.456;-4.456;2024-03-22T12:53:41;14.53;74.97
74178;DHT22;62540;48.456;-4.456;2024-03-22T12:56:07;14.50;74.99
74178;DHT22;62540;48.456;-4.456;2024-03-22T12:58:33;14.44;74.75
74178;DHT22;62540;48.456;-4.456;2024-03-22T13:00:59;14.46;75.16
74178;DHT22;62540;48.456;-4.456;2024-03-22T13:03:26;14.40;74.98
74178;DHT22;62540;48.456;-4.456;2024-03-22T13:05:51;14.34;75.09
74178;DHT22;62540;48.456;-4.456;2024-03-22T13:08:17;14.27;75.15
74178;DHT22;62540;48.456;-4.456;2024-03-22T13:10:42;14.30;75.14
74178;DHT22;62540;48.456;-4.456;2024-03-22T13:13:10;14.26;75.65
74178;DHT22;62540;48.456;-4.456;2024-03-22T13:15:35;14.29;75.64
74178;DHT22;62540;48.456;-4.456;2024-03-22T13:18:03;14.20;74.77
74178;DHT22;62540;48.456;-4.456;2024-03-22T13:20:29;14.04;74.38
74178;DHT22;62540;48.456;-4.456;2024-03-22T13:22:55;13.89;75.34
74178;DHT22;62540;48.456;-4.456;2024-03-22T13:25:20;13.83;74.93
74178;DHT22;62540;48.456;-4.456;2024-03-22T13:27:46;13.77;75.07
74178;DHT22;62540;48.456;-4.456;2024-03-22T13:30:11;13.71;74.64
74178;DHT22;62540;48.456;-4.456;2024-03-22T13:32:38;13.61;75.05
74178;DHT22;62540;48.456;-4.456;2024-03-22T13:35:04;13.57;75.81
74178;DHT22;62540;48.456;-4.456;2024-03-22T13:37:30;13.61;75.62
74178;DHT22;62540;48.456;-4.456;2024-03-22T13:39:56;13.54;75.06
74178;DHT22;62540;48.456;-4.456;2024-03-22T13:42:21;13.51;75.26
74178;DHT22;62540;48.456;-4.456;2024-03-22T13:44:46;13.47;75.77
74178;DHT22;62540;48.456;-4.456;2024-03-22T13:47:12;13.41;75.96
74178;DHT22;62540;48.456;-4.456;2024-03-22T13:49:37;13.43;76.16
74178;DHT22;62540;48.456;-4.456;2024-03-22T13:52:09;13.44;76.10
74178;DHT22;62540;48.456;-4.456;2024-03-22T13:54:35;13.51;75.89
74178;DHT22;62540;48.456;-4.456;2024-03-22T13:57:00;13.51;75.51
74178;DHT22;62540;48.456;-4.456;2024-03-22T13:59:27;13.48;75.50
74178;DHT22;62540;48.456;-4.456;2024-03-22T14:01:52;13.47;75.58
74178;DHT22;62540;48.456;-4.456;2024-03-22T14:04:18;13.48;76.15
74178;DHT22;62540;48.456;-4.456;2024-03-22T14:06:47;13.48;75.85
74178;DHT22;62540;48.456;-4.456;2024-03-22T14:09:12;13.48;75.27
74178;DHT22;62540;48.456;-4.456;2024-03-22T14:11:39;13.43;74.85
74178;DHT22;62540;48.456;-4.456;2024-03-22T14:14:05;13.39;75.14
74178;DHT22;62540;48.456;-4.456;2024-03-22T14:16:30;13.40;74.74
74178;DHT22;62540;48.456;-4.456;2024-03-22T14:18:56;13.41;75.28
74178;DHT22;62540;48.456;-4.456;2024-03-22T14:21:22;13.48;75.30
74178;DHT22;62540;48.456;-4.456;2024-03-22T14:23:51;13.54;74.88
74178;DHT22;62540;48.456;-4.456;2024-03-22T14:26:17;13.47;74.39
74178;DHT22;62540;48.456;-4.456;2024-03-22T14:28:43;13.46;74.79
74178;DHT22;62540;48.456;-4.456;2024-03-22T14:31:09;13.47;74.61
74178;DHT22;62540;48.456;-4.456;2024-03-22T14:33:38;13.53;75.07
74178;DHT22;62540;48.456;-4.456;2024-03-22T14:36:05;13.62;75.06
74178;DHT22;62540;48.456;-4.456;2024-03-22T14:38:32;13.74;74.98
74178;DHT22;62540;48.456;-4.456;2024-03-22T14:40:58;13.82;74.35
74178;DHT22;62540;48.456;-4.456;2024-03-22T14:43:25;13.85;74.06
74178;DHT22;62540;48.456;-4.456;2024-03-22T14:45:51;13.88;73.57
74178;DHT22;62540;48.456;-4.456;2024-03-22T14:48:22;13.92;73.53
74178;DHT22;62540;48.456;-4.456;2024-03-22T14:50:48;13.94;73.52
74178;DHT22;62540;48.456;-4.456;2024-03-22T14:53:16;13.98;73.51
74178;DHT22;62540;48.456;-4.456;2024-03-22T14:55:59;13.97;73.17
74178;DHT22;62540;48.456;-4.456;2024-03-22T14:58:26;13.95;73.05
74178;DHT22;62540;48.456;-4.456;2024-03-22T15:00:56;13.85;72.70
74178;DHT22;62540;48.456;-4.456;2024-03-22T15:03:22;13.81;72.70
74178;DHT22;62540;48.456;-4.456;2024-03-22T15:05:53;13.72;72.91
74178;DHT22;62540;48.456;-4.456;2024-03-22T15:08:19;13.61;72.46